TEJ106 SCEL-SCTE
Flight info
| Callsign | TEJ106 |
|---|---|
| Flight time | 1h 23m |
| Altitude | 33000 |
| Route | ANGOD6C ANGOD UQ803 ERUKA DCT SARTO SARTO2A |
| Aircraft | A320/M-SDE3FGHIRWY/LB1 |
Departure
| Time | 2026-04-16 22:28 |
|---|---|
| Airport | Comodoro Arturo Merino Benítez International Airport (SCEL) |
Arrival
| Time | 2026-04-16 23:51 |
|---|---|
| Airport | El Tepual International Airport (SCTE) |
| Time | Latitude | Longitude | Altitude | Speed | Heading |
|---|---|---|---|---|---|
| 2026-04-16 21:42 | -33.39603 | -70.79606 | 1565 ft | 0 kts | 176° |
| 2026-04-16 22:12 | -33.39600 | -70.79606 | 1581 ft | 2 kts | 177° |
| 2026-04-16 22:12 | -33.39582 | -70.79607 | 1565 ft | 3 kts | 180° |
| 2026-04-16 22:12 | -33.39562 | -70.79606 | 1565 ft | 3 kts | 186° |
| 2026-04-16 22:13 | -33.39542 | -70.79602 | 1565 ft | 3 kts | 198° |
| 2026-04-16 22:13 | -33.39524 | -70.79593 | 1565 ft | 3 kts | 226° |
| 2026-04-16 22:13 | -33.39517 | -70.79580 | 1565 ft | 1 kts | 266° |
| 2026-04-16 22:13 | -33.39517 | -70.79578 | 1565 ft | 1 kts | 267° |
| 2026-04-16 22:16 | -33.39519 | -70.79624 | 1565 ft | 13 kts | 267° |
| 2026-04-16 22:16 | -33.39523 | -70.79723 | 1565 ft | 22 kts | 266° |
| 2026-04-16 22:17 | -33.39529 | -70.79828 | 1565 ft | 0 kts | 263° |
| 2026-04-16 22:17 | -33.39530 | -70.79831 | 1565 ft | 3 kts | 261° |
| 2026-04-16 22:17 | -33.39531 | -70.79833 | 1565 ft | 0 kts | 253° |
| 2026-04-16 22:18 | -33.39533 | -70.79840 | 1565 ft | 2 kts | 251° |
| 2026-04-16 22:19 | -33.39533 | -70.79841 | 1565 ft | 1 kts | 251° |
| 2026-04-16 22:19 | -33.39535 | -70.79846 | 1565 ft | 0 kts | 250° |
| 2026-04-16 22:19 | -33.39534 | -70.79843 | 1565 ft | 2 kts | 250° |
| 2026-04-16 22:20 | -33.39529 | -70.79824 | 1565 ft | 0 kts | 261° |
| 2026-04-16 22:20 | -33.39530 | -70.79828 | 1565 ft | 0 kts | 257° |
| 2026-04-16 22:21 | -33.39534 | -70.79841 | 1565 ft | 0 kts | 251° |
| 2026-04-16 22:22 | -33.39538 | -70.79878 | 1565 ft | 9 kts | 277° |
| 2026-04-16 22:22 | -33.39532 | -70.79941 | 1565 ft | 13 kts | 274° |
| 2026-04-16 22:22 | -33.39462 | -70.80046 | 1566 ft | 21 kts | 1° |
| 2026-04-16 22:22 | -33.39366 | -70.80055 | 1566 ft | 14 kts | 3° |
| 2026-04-16 22:23 | -33.39207 | -70.80062 | 1566 ft | 31 kts | 357° |
| 2026-04-16 22:23 | -33.39010 | -70.80078 | 1567 ft | 34 kts | 353° |
| 2026-04-16 22:23 | -33.38750 | -70.80086 | 1567 ft | 33 kts | 357° |
| 2026-04-16 22:23 | -33.38506 | -70.80101 | 1567 ft | 36 kts | 358° |
| 2026-04-16 22:24 | -33.38233 | -70.80116 | 1566 ft | 39 kts | 357° |
| 2026-04-16 22:24 | -33.37954 | -70.80130 | 1566 ft | 45 kts | 357° |
| 2026-04-16 22:24 | -33.37616 | -70.80146 | 1567 ft | 37 kts | 358° |
| 2026-04-16 22:24 | -33.37338 | -70.80162 | 1567 ft | 38 kts | 357° |
| 2026-04-16 22:25 | -33.37153 | -70.80180 | 1567 ft | 21 kts | 329° |
| 2026-04-16 22:25 | -33.37108 | -70.80251 | 1569 ft | 0 kts | 278° |
| 2026-04-16 22:25 | -33.37109 | -70.80303 | 1573 ft | 12 kts | 257° |
| 2026-04-16 22:26 | -33.37203 | -70.80371 | 1573 ft | 22 kts | 179° |
| 2026-04-16 22:26 | -33.37249 | -70.80371 | 1573 ft | 1 kts | 178° |
| 2026-04-16 22:26 | -33.37253 | -70.80371 | 1573 ft | 0 kts | 178° |
| 2026-04-16 22:27 | -33.37354 | -70.80365 | 1573 ft | 47 kts | 177° |
| 2026-04-16 22:27 | -33.37942 | -70.80335 | 1573 ft | 120 kts | 177° |
| 2026-04-16 22:27 | -33.38986 | -70.80285 | 1574 ft | 178 kts | 178° |
| 2026-04-16 22:27 | -33.40350 | -70.80217 | 1855 ft | 208 kts | 176° |
| 2026-04-16 22:28 | -33.41817 | -70.80133 | 2731 ft | 213 kts | 178° |
| 2026-04-16 22:28 | -33.43316 | -70.80048 | 3373 ft | 220 kts | 178° |
| 2026-04-16 22:28 | -33.44895 | -70.79960 | 3782 ft | 236 kts | 178° |
| 2026-04-16 22:28 | -33.46599 | -70.79866 | 4218 ft | 253 kts | 178° |
| 2026-04-16 22:29 | -33.48413 | -70.79767 | 4706 ft | 268 kts | 177° |
| 2026-04-16 22:29 | -33.50307 | -70.79666 | 5381 ft | 276 kts | 177° |
| 2026-04-16 22:29 | -33.52247 | -70.79563 | 6137 ft | 282 kts | 177° |
| 2026-04-16 22:29 | -33.54228 | -70.79459 | 6851 ft | 288 kts | 178° |
| 2026-04-16 22:30 | -33.56248 | -70.79354 | 7558 ft | 293 kts | 178° |
| 2026-04-16 22:30 | -33.58303 | -70.79266 | 8253 ft | 299 kts | 183° |
| 2026-04-16 22:30 | -33.60373 | -70.79623 | 8964 ft | 303 kts | 197° |
| 2026-04-16 22:30 | -33.62428 | -70.80269 | 9668 ft | 308 kts | 197° |
| 2026-04-16 22:31 | -33.64523 | -70.80925 | 10256 ft | 316 kts | 197° |
| 2026-04-16 22:31 | -33.66681 | -70.81599 | 10615 ft | 333 kts | 197° |
| 2026-04-16 22:31 | -33.68982 | -70.82315 | 10948 ft | 349 kts | 197° |
| 2026-04-16 22:31 | -33.71399 | -70.83068 | 11248 ft | 367 kts | 197° |
| 2026-04-16 22:32 | -33.73920 | -70.83855 | 11515 ft | 383 kts | 197° |
| 2026-04-16 22:32 | -33.76554 | -70.84676 | 11762 ft | 399 kts | 197° |
| 2026-04-16 22:32 | -33.79298 | -70.85531 | 12038 ft | 413 kts | 197° |
| 2026-04-16 22:32 | -33.82100 | -70.86401 | 12592 ft | 418 kts | 197° |
| 2026-04-16 22:33 | -33.84930 | -70.87280 | 13232 ft | 421 kts | 197° |
| 2026-04-16 22:33 | -33.87776 | -70.88167 | 13850 ft | 424 kts | 197° |
| 2026-04-16 22:33 | -33.90647 | -70.89063 | 14399 ft | 427 kts | 197° |
| 2026-04-16 22:33 | -33.93537 | -70.89964 | 14957 ft | 430 kts | 197° |
| 2026-04-16 22:34 | -33.96440 | -70.90871 | 15518 ft | 432 kts | 197° |
| 2026-04-16 22:34 | -33.99355 | -70.91786 | 16016 ft | 434 kts | 197° |
| 2026-04-16 22:34 | -34.02283 | -70.92705 | 16549 ft | 436 kts | 197° |
| 2026-04-16 22:34 | -34.05242 | -70.93575 | 17052 ft | 439 kts | 196° |
| 2026-04-16 22:35 | -34.08245 | -70.94396 | 17572 ft | 442 kts | 195° |
| 2026-04-16 22:35 | -34.11255 | -70.95182 | 18092 ft | 444 kts | 195° |
| 2026-04-16 22:35 | -34.14292 | -70.95967 | 18528 ft | 447 kts | 195° |
| 2026-04-16 22:35 | -34.17336 | -70.96763 | 18944 ft | 449 kts | 195° |
| 2026-04-16 22:36 | -34.20355 | -70.97567 | 19340 ft | 450 kts | 196° |
| 2026-04-16 22:36 | -34.23406 | -70.98394 | 19755 ft | 451 kts | 196° |
| 2026-04-16 22:36 | -34.26470 | -70.99234 | 20141 ft | 452 kts | 196° |
| 2026-04-16 22:36 | -34.29544 | -71.00080 | 20515 ft | 454 kts | 196° |
| 2026-04-16 22:37 | -34.32623 | -71.00928 | 20876 ft | 455 kts | 196° |
| 2026-04-16 22:37 | -34.35719 | -71.01780 | 21239 ft | 456 kts | 196° |
| 2026-04-16 22:37 | -34.38817 | -71.02633 | 21586 ft | 458 kts | 196° |
| 2026-04-16 22:37 | -34.41932 | -71.03488 | 21926 ft | 459 kts | 196° |
| 2026-04-16 22:38 | -34.45046 | -71.04340 | 22257 ft | 460 kts | 196° |
| 2026-04-16 22:38 | -34.48175 | -71.05192 | 22598 ft | 462 kts | 196° |
| 2026-04-16 22:38 | -34.51318 | -71.06051 | 22922 ft | 463 kts | 196° |
| 2026-04-16 22:38 | -34.54459 | -71.06914 | 23231 ft | 464 kts | 196° |
| 2026-04-16 22:39 | -34.57616 | -71.07782 | 23520 ft | 465 kts | 196° |
| 2026-04-16 22:39 | -34.60777 | -71.08651 | 23784 ft | 467 kts | 196° |
| 2026-04-16 22:39 | -34.63946 | -71.09524 | 24007 ft | 468 kts | 196° |
| 2026-04-16 22:39 | -34.67129 | -71.10402 | 24232 ft | 470 kts | 196° |
| 2026-04-16 22:40 | -34.70321 | -71.11284 | 24441 ft | 471 kts | 196° |
| 2026-04-16 22:40 | -34.73521 | -71.12167 | 24646 ft | 472 kts | 195° |
| 2026-04-16 22:40 | -34.76740 | -71.13006 | 24838 ft | 474 kts | 195° |
| 2026-04-16 22:40 | -34.79976 | -71.13794 | 25076 ft | 474 kts | 194° |
| 2026-04-16 22:41 | -34.83216 | -71.14550 | 25356 ft | 473 kts | 194° |
| 2026-04-16 22:41 | -34.86455 | -71.15301 | 25633 ft | 473 kts | 194° |
| 2026-04-16 22:41 | -34.89679 | -71.16059 | 25904 ft | 472 kts | 194° |
| 2026-04-16 22:41 | -34.92898 | -71.16830 | 26181 ft | 471 kts | 194° |
| 2026-04-16 22:42 | -34.96120 | -71.17613 | 26458 ft | 471 kts | 195° |
| 2026-04-16 22:42 | -34.99329 | -71.18401 | 26734 ft | 470 kts | 195° |
| 2026-04-16 22:42 | -35.02531 | -71.19190 | 27019 ft | 470 kts | 195° |
| 2026-04-16 22:42 | -35.05730 | -71.19977 | 27299 ft | 469 kts | 195° |
| 2026-04-16 22:43 | -35.08932 | -71.20760 | 27579 ft | 469 kts | 195° |
| 2026-04-16 22:43 | -35.12126 | -71.21541 | 27864 ft | 468 kts | 195° |
| 2026-04-16 22:43 | -35.15279 | -71.22311 | 28149 ft | 468 kts | 195° |
| 2026-04-16 22:43 | -35.18465 | -71.23088 | 28442 ft | 467 kts | 195° |
| 2026-04-16 22:44 | -35.21650 | -71.23865 | 28727 ft | 467 kts | 195° |
| 2026-04-16 22:44 | -35.24834 | -71.24645 | 29012 ft | 466 kts | 195° |
| 2026-04-16 22:44 | -35.28014 | -71.25427 | 29307 ft | 466 kts | 195° |
| 2026-04-16 22:44 | -35.31187 | -71.26208 | 29599 ft | 465 kts | 195° |
| 2026-04-16 22:45 | -35.34363 | -71.26988 | 29885 ft | 465 kts | 195° |
| 2026-04-16 22:45 | -35.37532 | -71.27765 | 30164 ft | 464 kts | 195° |
| 2026-04-16 22:45 | -35.40698 | -71.28544 | 30414 ft | 464 kts | 195° |
| 2026-04-16 22:45 | -35.43862 | -71.29325 | 30663 ft | 463 kts | 195° |
| 2026-04-16 22:46 | -35.47017 | -71.30104 | 30902 ft | 463 kts | 195° |
| 2026-04-16 22:46 | -35.50170 | -71.30881 | 31144 ft | 462 kts | 195° |
| 2026-04-16 22:46 | -35.53324 | -71.31661 | 31384 ft | 462 kts | 195° |
| 2026-04-16 22:46 | -35.56462 | -71.32440 | 31615 ft | 461 kts | 195° |
| 2026-04-16 22:47 | -35.59612 | -71.33222 | 31862 ft | 461 kts | 195° |
| 2026-04-16 22:47 | -35.62752 | -71.34000 | 32093 ft | 460 kts | 195° |
| 2026-04-16 22:47 | -35.65890 | -71.34777 | 32341 ft | 460 kts | 195° |
| 2026-04-16 22:47 | -35.69027 | -71.35556 | 32579 ft | 459 kts | 195° |
| 2026-04-16 22:48 | -35.72154 | -71.36335 | 32809 ft | 459 kts | 195° |
| 2026-04-16 22:48 | -35.75284 | -71.37114 | 33009 ft | 458 kts | 195° |
| 2026-04-16 22:48 | -35.81574 | -71.38689 | 33060 ft | 463 kts | 195° |
| 2026-04-16 22:49 | -35.87902 | -71.40268 | 33056 ft | 464 kts | 195° |
| 2026-04-16 22:49 | -35.94225 | -71.41845 | 33055 ft | 464 kts | 195° |
| 2026-04-16 22:50 | -36.00543 | -71.43431 | 33058 ft | 463 kts | 195° |
| 2026-04-16 22:50 | -36.06857 | -71.45019 | 33059 ft | 463 kts | 194° |
| 2026-04-16 22:51 | -36.13139 | -71.46595 | 33057 ft | 463 kts | 194° |
| 2026-04-16 22:51 | -36.19451 | -71.48182 | 33060 ft | 463 kts | 194° |
| 2026-04-16 22:52 | -36.25760 | -71.49770 | 33060 ft | 463 kts | 194° |
| 2026-04-16 22:52 | -36.32079 | -71.51363 | 33066 ft | 463 kts | 194° |
| 2026-04-16 22:53 | -36.38396 | -71.52957 | 33071 ft | 462 kts | 194° |
| 2026-04-16 22:53 | -36.44702 | -71.54559 | 33070 ft | 462 kts | 194° |
| 2026-04-16 22:54 | -36.51008 | -71.56162 | 33069 ft | 462 kts | 194° |
| 2026-04-16 22:54 | -36.57262 | -71.57750 | 33068 ft | 462 kts | 194° |
| 2026-04-16 22:55 | -36.63563 | -71.59358 | 33064 ft | 461 kts | 194° |
| 2026-04-16 22:55 | -36.69846 | -71.60961 | 33060 ft | 461 kts | 194° |
| 2026-04-16 22:56 | -36.76138 | -71.62572 | 33060 ft | 461 kts | 194° |
| 2026-04-16 22:56 | -36.82427 | -71.64176 | 33060 ft | 461 kts | 194° |
| 2026-04-16 22:57 | -36.88721 | -71.65782 | 33061 ft | 461 kts | 194° |
| 2026-04-16 22:57 | -36.95001 | -71.67397 | 33060 ft | 461 kts | 194° |
| 2026-04-16 22:58 | -37.01281 | -71.69014 | 33053 ft | 460 kts | 194° |
| 2026-04-16 22:58 | -37.07551 | -71.70633 | 33054 ft | 461 kts | 194° |
| 2026-04-16 22:59 | -37.13839 | -71.72259 | 33055 ft | 460 kts | 194° |
| 2026-04-16 22:59 | -37.20073 | -71.73865 | 33047 ft | 460 kts | 194° |
| 2026-04-16 23:00 | -37.26342 | -71.75484 | 33041 ft | 460 kts | 194° |
| 2026-04-16 23:00 | -37.32611 | -71.77114 | 33037 ft | 460 kts | 194° |
| 2026-04-16 23:01 | -37.38880 | -71.78741 | 33028 ft | 460 kts | 194° |
| 2026-04-16 23:01 | -37.45148 | -71.80380 | 33033 ft | 460 kts | 194° |
| 2026-04-16 23:02 | -37.51418 | -71.82018 | 33033 ft | 460 kts | 194° |
| 2026-04-16 23:02 | -37.57692 | -71.83653 | 33034 ft | 460 kts | 194° |
| 2026-04-16 23:03 | -37.62905 | -71.85012 | 33025 ft | 460 kts | 194° |
| 2026-04-16 23:03 | -37.69175 | -71.86653 | 33038 ft | 460 kts | 194° |
| 2026-04-16 23:04 | -37.75435 | -71.88373 | 33029 ft | 460 kts | 195° |
| 2026-04-16 23:04 | -37.81644 | -71.90323 | 33027 ft | 459 kts | 196° |
| 2026-04-16 23:05 | -37.87835 | -71.92330 | 33021 ft | 459 kts | 196° |
| 2026-04-16 23:05 | -37.94035 | -71.94303 | 33022 ft | 459 kts | 196° |
| 2026-04-16 23:06 | -38.00246 | -71.96236 | 33020 ft | 460 kts | 196° |
| 2026-04-16 23:06 | -38.06463 | -71.98164 | 33014 ft | 460 kts | 196° |
| 2026-04-16 23:07 | -38.12680 | -72.00109 | 33015 ft | 460 kts | 196° |
| 2026-04-16 23:07 | -38.18887 | -72.02064 | 33012 ft | 460 kts | 196° |
| 2026-04-16 23:08 | -38.25063 | -72.04011 | 33011 ft | 460 kts | 196° |
| 2026-04-16 23:08 | -38.31280 | -72.05984 | 33002 ft | 460 kts | 197° |
| 2026-04-16 23:09 | -38.37491 | -72.07948 | 33007 ft | 460 kts | 197° |
| 2026-04-16 23:09 | -38.43706 | -72.09913 | 33003 ft | 460 kts | 197° |
| 2026-04-16 23:10 | -38.49920 | -72.11884 | 33002 ft | 460 kts | 197° |
| 2026-04-16 23:10 | -38.56139 | -72.13868 | 32995 ft | 461 kts | 197° |
| 2026-04-16 23:11 | -38.62356 | -72.15856 | 32995 ft | 461 kts | 197° |
| 2026-04-16 23:11 | -38.68575 | -72.17839 | 32982 ft | 461 kts | 197° |
| 2026-04-16 23:12 | -38.74802 | -72.19834 | 32988 ft | 461 kts | 197° |
| 2026-04-16 23:12 | -38.81030 | -72.21839 | 32986 ft | 462 kts | 197° |
| 2026-04-16 23:13 | -38.87263 | -72.23844 | 32986 ft | 461 kts | 197° |
| 2026-04-16 23:13 | -38.93496 | -72.25846 | 32980 ft | 462 kts | 197° |
| 2026-04-16 23:14 | -38.96600 | -72.26843 | 32732 ft | 459 kts | 197° |
| 2026-04-16 23:14 | -38.99693 | -72.27834 | 32019 ft | 458 kts | 197° |
| 2026-04-16 23:14 | -39.02763 | -72.28819 | 31650 ft | 448 kts | 197° |
| 2026-04-16 23:14 | -39.05735 | -72.29772 | 31534 ft | 433 kts | 198° |
| 2026-04-16 23:15 | -39.11356 | -72.31583 | 31299 ft | 406 kts | 198° |
| 2026-04-16 23:15 | -39.14050 | -72.32457 | 31185 ft | 393 kts | 198° |
| 2026-04-16 23:15 | -39.16659 | -72.33306 | 30991 ft | 382 kts | 198° |
| 2026-04-16 23:16 | -39.19219 | -72.34141 | 30641 ft | 377 kts | 198° |
| 2026-04-16 23:16 | -39.21752 | -72.34970 | 30240 ft | 374 kts | 198° |
| 2026-04-16 23:16 | -39.24266 | -72.35788 | 29800 ft | 371 kts | 198° |
| 2026-04-16 23:16 | -39.26764 | -72.36600 | 29297 ft | 368 kts | 198° |
| 2026-04-16 23:17 | -39.29243 | -72.37406 | 28861 ft | 365 kts | 199° |
| 2026-04-16 23:17 | -39.31692 | -72.38199 | 28408 ft | 362 kts | 199° |
| 2026-04-16 23:17 | -39.34137 | -72.38990 | 27958 ft | 360 kts | 199° |
| 2026-04-16 23:17 | -39.36554 | -72.39775 | 27511 ft | 357 kts | 199° |
| 2026-04-16 23:18 | -39.38953 | -72.40557 | 27072 ft | 354 kts | 199° |
| 2026-04-16 23:18 | -39.41330 | -72.41333 | 26657 ft | 351 kts | 199° |
| 2026-04-16 23:18 | -39.43690 | -72.42104 | 26223 ft | 349 kts | 199° |
| 2026-04-16 23:18 | -39.46038 | -72.42871 | 25804 ft | 346 kts | 199° |
| 2026-04-16 23:19 | -39.48367 | -72.43629 | 25374 ft | 344 kts | 199° |
| 2026-04-16 23:19 | -39.50681 | -72.44382 | 24961 ft | 341 kts | 199° |
| 2026-04-16 23:19 | -39.52948 | -72.45125 | 24567 ft | 339 kts | 199° |
| 2026-04-16 23:19 | -39.55224 | -72.45876 | 24161 ft | 337 kts | 199° |
| 2026-04-16 23:20 | -39.57490 | -72.46618 | 23776 ft | 335 kts | 199° |
| 2026-04-16 23:20 | -39.59738 | -72.47354 | 23362 ft | 332 kts | 199° |
| 2026-04-16 23:20 | -39.61975 | -72.48088 | 22921 ft | 330 kts | 199° |
| 2026-04-16 23:20 | -39.64191 | -72.48818 | 22507 ft | 327 kts | 199° |
| 2026-04-16 23:21 | -39.66391 | -72.49542 | 22115 ft | 325 kts | 199° |
| 2026-04-16 23:21 | -39.68579 | -72.50257 | 21774 ft | 322 kts | 199° |
| 2026-04-16 23:21 | -39.70743 | -72.50968 | 21411 ft | 320 kts | 199° |
| 2026-04-16 23:21 | -39.72897 | -72.51676 | 21037 ft | 318 kts | 200° |
| 2026-04-16 23:22 | -39.75032 | -72.52377 | 20675 ft | 315 kts | 199° |
| 2026-04-16 23:22 | -39.77150 | -72.53067 | 20298 ft | 313 kts | 199° |
| 2026-04-16 23:22 | -39.79264 | -72.53749 | 19952 ft | 311 kts | 199° |
| 2026-04-16 23:22 | -39.81358 | -72.54424 | 19614 ft | 309 kts | 199° |
| 2026-04-16 23:23 | -39.83445 | -72.55099 | 19111 ft | 313 kts | 199° |
| 2026-04-16 23:23 | -39.85596 | -72.55797 | 18434 ft | 323 kts | 199° |
| 2026-04-16 23:23 | -39.87816 | -72.56520 | 17705 ft | 334 kts | 199° |
| 2026-04-16 23:23 | -39.90100 | -72.57264 | 16927 ft | 344 kts | 199° |
| 2026-04-16 23:24 | -39.92456 | -72.58032 | 16163 ft | 354 kts | 199° |
| 2026-04-16 23:24 | -39.94870 | -72.58813 | 15516 ft | 360 kts | 198° |
| 2026-04-16 23:24 | -39.97305 | -72.59593 | 15066 ft | 360 kts | 198° |
| 2026-04-16 23:24 | -39.99732 | -72.60367 | 14656 ft | 358 kts | 198° |
| 2026-04-16 23:25 | -40.02141 | -72.61142 | 14259 ft | 355 kts | 198° |
| 2026-04-16 23:25 | -40.04537 | -72.61918 | 13866 ft | 353 kts | 198° |
| 2026-04-16 23:25 | -40.06915 | -72.62690 | 13440 ft | 352 kts | 198° |
| 2026-04-16 23:25 | -40.09256 | -72.63453 | 13078 ft | 350 kts | 198° |
| 2026-04-16 23:26 | -40.11616 | -72.64222 | 12716 ft | 348 kts | 198° |
| 2026-04-16 23:26 | -40.13959 | -72.64986 | 12320 ft | 346 kts | 198° |
| 2026-04-16 23:26 | -40.16289 | -72.65741 | 11859 ft | 344 kts | 198° |
| 2026-04-16 23:26 | -40.18612 | -72.66492 | 11395 ft | 342 kts | 198° |
| 2026-04-16 23:27 | -40.20915 | -72.67241 | 10941 ft | 340 kts | 198° |
| 2026-04-16 23:27 | -40.23207 | -72.67989 | 10505 ft | 338 kts | 198° |
| 2026-04-16 23:27 | -40.25475 | -72.68729 | 10070 ft | 336 kts | 198° |
| 2026-04-16 23:27 | -40.27736 | -72.69464 | 9599 ft | 334 kts | 198° |
| 2026-04-16 23:28 | -40.29978 | -72.70198 | 9124 ft | 331 kts | 198° |
| 2026-04-16 23:28 | -40.32210 | -72.70928 | 8641 ft | 329 kts | 198° |
| 2026-04-16 23:28 | -40.34420 | -72.71648 | 8152 ft | 326 kts | 198° |
| 2026-04-16 23:28 | -40.36616 | -72.72368 | 7667 ft | 324 kts | 198° |
| 2026-04-16 23:29 | -40.38535 | -72.73002 | 7234 ft | 322 kts | 198° |
| 2026-04-16 23:29 | -40.40713 | -72.73722 | 6751 ft | 320 kts | 198° |
| 2026-04-16 23:29 | -40.42869 | -72.74432 | 6273 ft | 318 kts | 198° |
| 2026-04-16 23:29 | -40.45014 | -72.75136 | 6068 ft | 318 kts | 198° |
| 2026-04-16 23:30 | -40.47161 | -72.75844 | 6068 ft | 318 kts | 198° |
| 2026-04-16 23:30 | -40.49314 | -72.76553 | 6073 ft | 318 kts | 198° |
| 2026-04-16 23:30 | -40.51462 | -72.77261 | 6068 ft | 318 kts | 198° |
| 2026-04-16 23:30 | -40.53613 | -72.77968 | 6065 ft | 319 kts | 198° |
| 2026-04-16 23:31 | -40.55765 | -72.78673 | 6062 ft | 318 kts | 198° |
| 2026-04-16 23:31 | -40.57885 | -72.79369 | 6065 ft | 318 kts | 198° |
| 2026-04-16 23:31 | -40.60041 | -72.80080 | 6067 ft | 319 kts | 198° |
| 2026-04-16 23:31 | -40.62191 | -72.80791 | 6067 ft | 319 kts | 198° |
| 2026-04-16 23:32 | -40.64339 | -72.81501 | 6065 ft | 318 kts | 198° |
| 2026-04-16 23:32 | -40.66479 | -72.82210 | 6065 ft | 318 kts | 198° |
| 2026-04-16 23:32 | -40.68626 | -72.82918 | 6062 ft | 318 kts | 198° |
| 2026-04-16 23:32 | -40.70774 | -72.83626 | 6066 ft | 317 kts | 198° |
| 2026-04-16 23:33 | -40.72914 | -72.84334 | 6064 ft | 317 kts | 198° |
| 2026-04-16 23:33 | -40.75052 | -72.85041 | 6065 ft | 317 kts | 198° |
| 2026-04-16 23:33 | -40.77195 | -72.85752 | 6060 ft | 317 kts | 198° |
| 2026-04-16 23:33 | -40.79337 | -72.86464 | 6061 ft | 317 kts | 198° |
| 2026-04-16 23:34 | -40.81480 | -72.87177 | 6059 ft | 317 kts | 198° |
| 2026-04-16 23:34 | -40.83620 | -72.87888 | 6060 ft | 317 kts | 198° |
| 2026-04-16 23:34 | -40.85761 | -72.88598 | 6060 ft | 317 kts | 198° |
| 2026-04-16 23:34 | -40.87904 | -72.89311 | 6059 ft | 317 kts | 198° |
| 2026-04-16 23:35 | -40.90042 | -72.90027 | 6061 ft | 317 kts | 198° |
| 2026-04-16 23:35 | -40.92180 | -72.90748 | 6060 ft | 317 kts | 198° |
| 2026-04-16 23:35 | -40.94322 | -72.91431 | 6060 ft | 318 kts | 195° |
| 2026-04-16 23:35 | -40.96531 | -72.91824 | 6058 ft | 321 kts | 188° |
| 2026-04-16 23:36 | -40.98718 | -72.92083 | 6056 ft | 320 kts | 189° |
| 2026-04-16 23:36 | -41.00938 | -72.92356 | 6057 ft | 320 kts | 189° |
| 2026-04-16 23:36 | -41.03154 | -72.92632 | 6055 ft | 320 kts | 189° |
| 2026-04-16 23:36 | -41.05370 | -72.92908 | 6056 ft | 320 kts | 189° |
| 2026-04-16 23:37 | -41.07588 | -72.93184 | 6058 ft | 320 kts | 189° |
| 2026-04-16 23:37 | -41.09806 | -72.93462 | 6057 ft | 320 kts | 189° |
| 2026-04-16 23:37 | -41.12024 | -72.93740 | 6053 ft | 320 kts | 189° |
| 2026-04-16 23:37 | -41.14249 | -72.94016 | 6052 ft | 320 kts | 189° |
| 2026-04-16 23:38 | -41.16466 | -72.94289 | 6051 ft | 320 kts | 189° |
| 2026-04-16 23:38 | -41.18685 | -72.94562 | 6049 ft | 320 kts | 189° |
| 2026-04-16 23:38 | -41.20904 | -72.94838 | 6048 ft | 320 kts | 189° |
| 2026-04-16 23:38 | -41.23124 | -72.95114 | 6044 ft | 320 kts | 189° |
| 2026-04-16 23:39 | -41.25303 | -72.95594 | 5883 ft | 315 kts | 199° |
| 2026-04-16 23:39 | -41.27317 | -72.96536 | 5478 ft | 309 kts | 209° |
| 2026-04-16 23:39 | -41.29176 | -72.97908 | 4998 ft | 303 kts | 217° |
| 2026-04-16 23:39 | -41.30962 | -72.99392 | 4453 ft | 302 kts | 216° |
| 2026-04-16 23:40 | -41.32750 | -73.00864 | 3914 ft | 302 kts | 215° |
| 2026-04-16 23:40 | -41.34532 | -73.02321 | 3469 ft | 298 kts | 215° |
| 2026-04-16 23:40 | -41.36299 | -73.03763 | 3108 ft | 297 kts | 214° |
| 2026-04-16 23:40 | -41.38067 | -73.05210 | 3051 ft | 298 kts | 214° |
| 2026-04-16 23:41 | -41.39834 | -73.06660 | 3062 ft | 299 kts | 214° |
| 2026-04-16 23:41 | -41.41594 | -73.08105 | 3062 ft | 297 kts | 214° |
| 2026-04-16 23:41 | -41.43444 | -73.09360 | 3063 ft | 299 kts | 202° |
| 2026-04-16 23:41 | -41.45450 | -73.10121 | 3063 ft | 301 kts | 197° |
| 2026-04-16 23:42 | -41.47475 | -73.10852 | 3064 ft | 301 kts | 198° |
| 2026-04-16 23:42 | -41.49489 | -73.11584 | 3062 ft | 300 kts | 198° |
| 2026-04-16 23:42 | -41.51497 | -73.12318 | 3061 ft | 299 kts | 198° |
| 2026-04-16 23:42 | -41.53512 | -73.13053 | 3061 ft | 300 kts | 198° |
| 2026-04-16 23:43 | -41.55524 | -73.13788 | 3060 ft | 300 kts | 198° |
| 2026-04-16 23:43 | -41.57536 | -73.14523 | 3060 ft | 300 kts | 198° |
| 2026-04-16 23:43 | -41.59516 | -73.15249 | 3059 ft | 299 kts | 198° |
| 2026-04-16 23:43 | -41.61503 | -73.15975 | 2903 ft | 293 kts | 198° |
| 2026-04-16 23:44 | -41.63434 | -73.16671 | 2746 ft | 279 kts | 196° |
| 2026-04-16 23:44 | -41.65319 | -73.16734 | 2629 ft | 270 kts | 165° |
| 2026-04-16 23:44 | -41.66830 | -73.15430 | 2539 ft | 250 kts | 126° |
| 2026-04-16 23:44 | -41.67366 | -73.13422 | 2541 ft | 217 kts | 85° |
| 2026-04-16 23:45 | -41.66985 | -73.11649 | 2585 ft | 185 kts | 52° |
| 2026-04-16 23:45 | -41.66133 | -73.10554 | 2544 ft | 157 kts | 22° |
| 2026-04-16 23:45 | -41.65123 | -73.10153 | 2559 ft | 150 kts | 357° |
| 2026-04-16 23:45 | -41.64076 | -73.10118 | 2561 ft | 150 kts | 356° |
| 2026-04-16 23:46 | -41.63033 | -73.10080 | 2567 ft | 147 kts | 356° |
| 2026-04-16 23:46 | -41.62025 | -73.10043 | 2575 ft | 144 kts | 356° |
| 2026-04-16 23:46 | -41.61023 | -73.10007 | 2567 ft | 144 kts | 356° |
| 2026-04-16 23:46 | -41.60020 | -73.09972 | 2566 ft | 144 kts | 356° |
| 2026-04-16 23:47 | -41.59022 | -73.09936 | 2563 ft | 144 kts | 356° |
| 2026-04-16 23:47 | -41.58020 | -73.09900 | 2563 ft | 144 kts | 357° |
| 2026-04-16 23:47 | -41.57020 | -73.09864 | 2524 ft | 144 kts | 357° |
| 2026-04-16 23:47 | -41.56036 | -73.09829 | 2406 ft | 143 kts | 357° |
| 2026-04-16 23:48 | -41.55044 | -73.09793 | 2241 ft | 143 kts | 357° |
| 2026-04-16 23:48 | -41.54046 | -73.09758 | 2059 ft | 144 kts | 357° |
| 2026-04-16 23:48 | -41.53047 | -73.09722 | 1873 ft | 143 kts | 357° |
| 2026-04-16 23:48 | -41.52048 | -73.09686 | 1684 ft | 144 kts | 357° |
| 2026-04-16 23:49 | -41.51052 | -73.09651 | 1480 ft | 143 kts | 358° |
| 2026-04-16 23:49 | -41.50068 | -73.09615 | 1297 ft | 141 kts | 358° |
| 2026-04-16 23:49 | -41.49085 | -73.09581 | 1101 ft | 141 kts | 359° |
| 2026-04-16 23:49 | -41.48434 | -73.09558 | 985 ft | 141 kts | 359° |
| 2026-04-16 23:50 | -41.47134 | -73.09511 | 740 ft | 138 kts | 0° |
| 2026-04-16 23:50 | -41.46500 | -73.09489 | 627 ft | 138 kts | 0° |
| 2026-04-16 23:50 | -41.45533 | -73.09454 | 438 ft | 140 kts | 359° |
| 2026-04-16 23:50 | -41.44582 | -73.09417 | 306 ft | 129 kts | 2° |
| 2026-04-16 23:51 | -41.43789 | -73.09386 | 296 ft | 92 kts | 0° |
| 2026-04-16 23:51 | -41.43493 | -73.09392 | 302 ft | 5 kts | 317° |
| 2026-04-16 23:51 | -41.43476 | -73.09433 | 303 ft | 8 kts | 292° |
| 2026-04-16 23:51 | -41.43474 | -73.09471 | 305 ft | 0 kts | 272° |
| 2026-04-16 23:53 | -41.43473 | -73.09493 | 303 ft | 6 kts | 273° |
| 2026-04-16 23:53 | -41.43470 | -73.09570 | 305 ft | 2 kts | 273° |
| 2026-04-16 23:53 | -41.43467 | -73.09596 | 303 ft | 2 kts | 292° |
| 2026-04-16 23:53 | -41.43438 | -73.09601 | 301 ft | 7 kts | 360° |
| 2026-04-16 23:54 | -41.43424 | -73.09601 | 301 ft | 0 kts | 360° |
| 2026-04-16 23:54 | -41.43421 | -73.09604 | 302 ft | 2 kts | 342° |
| 2026-04-16 23:54 | -41.43410 | -73.09646 | 301 ft | 8 kts | 278° |
| 2026-04-16 23:54 | -41.43410 | -73.09730 | 301 ft | 7 kts | 271° |
| 2026-04-16 23:55 | -41.43409 | -73.09748 | 301 ft | 1 kts | 271° |
| 2026-04-16 23:55 | -41.43409 | -73.09750 | 301 ft | 0 kts | 271° |